Time;durP1;ratioP1;P1;durP2;ratioP2;P2;SDS_P1;SDS_P2;PMS_P1;PMS_P2;Temp;Humidity;BMP_temperature;BMP_pressure;BME280_temperature;BME280_humidity;BME280_pressure;Samples;Min_cycle;Max_cycle;Signal;HPM_P1;HPM_P2
2021/04/28 00:25:51;;;;;;;31.07;19.50;;;;;;;2.95;68.86;100760.73;1695140;79;22519;-44
2021/04/28 00:28:20;;;;;;;25.37;15.88;;;;;;;2.89;68.72;100766.98;1711467;82;21139;-41
2021/04/28 00:30:47;;;;;;;19.80;12.70;;;;;;;2.88;68.55;100767.04;1711237;82;21567;-43
2021/04/28 00:33:15;;;;;;;18.50;12.47;;;;;;;2.88;68.21;100761.77;1713937;82;21625;-40
2021/04/28 00:35:43;;;;;;;15.90;10.03;;;;;;;2.90;67.60;100766.53;1675140;84;21170;-39
2021/04/28 00:38:10;;;;;;;15.95;10.50;;;;;;;2.88;67.12;100766.59;1666711;84;21186;-43
2021/04/28 00:40:39;;;;;;;19.32;12.75;;;;;;;2.90;66.84;100767.84;1720404;82;21194;-42
2021/04/28 00:43:08;;;;;;;25.35;15.50;;;;;;;2.90;66.71;100765.22;1721962;81;21585;-40
2021/04/28 00:45:35;;;;;;;27.77;16.07;;;;;;;2.89;66.62;100766.98;1729573;81;21175;-40
2021/04/28 00:48:06;;;;;;;23.75;15.32;;;;;;;2.90;66.55;100765.22;1725227;81;21190;-43
2021/04/28 00:50:45;;;;;;;21.33;14.23;;;;;;;2.89;66.57;100765.67;1731768;81;21123;-39
2021/04/28 00:53:16;;;;;;;17.55;12.30;;;;;;;2.88;66.64;100767.04;1716803;82;21157;-39
2021/04/28 00:55:43;;;;;;;15.28;10.20;;;;;;;2.86;66.72;100768.38;1734049;81;21157;-40
2021/04/28 00:58:11;;;;;;;16.52;10.63;;;;;;;2.85;66.77;100776.30;1727744;81;21151;-39
2021/04/28 01:00:39;;;;;;;15.75;9.80;;;;;;;2.81;66.85;100771.56;1729044;81;21112;-41
2021/04/28 01:03:07;;;;;;;15.10;8.48;;;;;;;2.80;66.94;100772.48;1729102;81;21137;-39
2021/04/28 01:05:35;;;;;;;13.25;8.78;;;;;;;2.79;66.96;100774.67;1726947;81;21167;-38
2021/04/28 01:08:04;;;;;;;12.35;8.55;;;;;;;2.78;67.03;100775.59;1733294;81;21157;-47
2021/04/28 01:10:36;;;;;;;15.40;9.00;;;;;;;2.77;67.04;100775.16;1730952;81;21157;-44
2021/04/28 01:13:05;;;;;;;14.15;8.48;;;;;;;2.76;67.02;100772.98;1729291;81;21169;-40
2021/04/28 01:15:34;;;;;;;13.38;8.75;;;;;;;2.76;67.02;100774.75;1728880;81;21177;-41
2021/04/28 01:18:04;;;;;;;12.00;7.85;;;;;;;2.75;67.00;100772.58;1692673;83;21184;-42
2021/04/28 01:20:36;;;;;;;11.68;8.23;;;;;;;2.74;66.98;100772.14;1669420;84;21193;-42
2021/04/28 01:23:05;;;;;;;10.80;7.67;;;;;;;2.73;66.94;100773.05;1676883;83;21160;-43
2021/04/28 01:25:33;;;;;;;14.43;8.53;;;;;;;2.72;66.90;100769.13;1692558;83;21561;-39
2021/04/28 01:28:05;;;;;;;13.72;8.43;;;;;;;2.72;66.83;100771.75;1687397;83;21158;-42
2021/04/28 01:30:46;;;;;;;17.87;8.93;;;;;;;2.69;66.82;100767.42;1692858;83;21171;-40
2021/04/28 01:33:22;;;;;;;16.23;8.50;;;;;;;2.70;66.78;100767.86;1655559;85;21149;-40
2021/04/28 01:35:53;;;;;;;14.73;10.28;;;;;;;2.70;66.71;100773.13;1670923;84;21560;-40
2021/04/28 01:38:22;;;;;;;16.17;9.75;;;;;;;2.70;66.58;100774.44;1671737;84;21157;-40
2021/04/28 01:40:49;;;;;;;15.28;10.43;;;;;;;2.67;66.59;100768.36;1673464;84;21315;-39
2021/04/28 01:43:19;;;;;;;19.55;10.95;;;;;;;2.66;66.61;100771.44;1677229;84;21176;-55
2021/04/28 01:45:50;;;;;;;18.30;10.80;;;;;;;2.67;66.64;100780.20;1671532;84;21715;-44
2021/04/28 01:48:18;;;;;;;16.65;10.60;;;;;;;2.67;66.71;100778.89;1671020;84;21125;-42
2021/04/28 01:50:47;;;;;;;16.45;11.18;;;;;;;2.65;66.79;100780.25;1670176;84;21141;-40
2021/04/28 01:53:20;;;;;;;21.60;12.25;;;;;;;2.65;66.79;100778.94;1655838;85;21570;-40
2021/04/28 01:55:50;;;;;;;19.60;12.85;;;;;;;2.66;66.83;100779.80;1665832;84;21609;-38
2021/04/28 01:58:36;;;;;;;17.80;11.73;;;;;;;2.69;66.87;100771.83;1763239;78;23101;-42
2021/04/28 02:01:06;;;;;;;20.17;12.28;;;;;;;2.65;66.94;100780.71;1710385;82;21791;-40
2021/04/28 02:03:37;;;;;;;;;;;;;;;2.62;67.01;100773.75;1736145;80;21129;-40
2021/04/28 02:06:06;;;;;;;15.70;9.85;;;;;;;2.61;67.03;100779.89;1734496;80;20588;-38
2021/04/28 02:08:34;;;;;;;15.40;9.85;;;;;;;2.61;67.06;100781.20;1735194;80;21133;-40
2021/04/28 02:11:04;;;;;;;15.10;10.18;;;;;;;2.59;67.11;100779.05;1733856;80;21609;-43
2021/04/28 02:13:36;;;;;;;16.45;10.40;;;;;;;2.56;67.20;100777.34;1732809;80;21590;-42
2021/04/28 02:16:05;;;;;;;16.85;10.53;;;;;;;2.56;67.33;100777.80;1731992;80;21130;-41
2021/04/28 02:18:34;;;;;;;16.50;10.45;;;;;;;2.54;67.48;100779.59;1733044;80;21157;-42
2021/04/28 02:21:02;;;;;;;20.27;11.10;;;;;;;2.51;67.62;100779.67;1737926;80;21098;-41
2021/04/28 02:23:43;;;;;;;19.50;11.48;;;;;;;2.54;67.68;100778.28;1762631;79;23081;-39
2021/04/28 02:26:12;;;;;;;18.07;11.73;;;;;;;2.48;67.70;100782.37;1733897;80;21584;-43
2021/04/28 02:28:39;;;;;;;21.35;12.33;;;;;;;2.45;67.74;100788.56;1734610;81;21100;-40
2021/04/28 02:31:07;;;;;;;18.48;11.48;;;;;;;2.43;67.75;100787.72;1736509;82;21181;-48
2021/04/28 02:33:37;;;;;;;22.58;14.03;;;;;;;2.44;67.79;100788.12;1702405;82;21183;-43
2021/04/28 02:36:24;;;;;;;16.25;11.25;;;;;;;2.44;67.83;100788.58;1737314;82;21134;-41
2021/04/28 02:39:29;;;;;;;18.30;10.95;;;;;;;2.44;67.90;100788.58;1736085;80;21153;-40
2021/04/28 02:41:57;;;;;;;14.58;10.35;;;;;;;2.43;67.88;100789.49;1695620;82;21173;-39
2021/04/28 02:44:26;;;;;;;17.35;11.10;;;;;;;2.43;67.81;100796.94;1710207;82;21158;-42
2021/04/28 02:46:56;;;;;;;16.37;9.93;;;;;;;2.41;67.67;100802.67;1710000;82;21185;-41
2021/04/28 02:49:25;;;;;;;15.58;10.63;;;;;;;2.40;67.57;100798.78;1706137;82;21134;-40
2021/04/28 02:51:54;;;;;;;18.85;10.40;;;;;;;2.38;67.59;100805.38;1693925;83;21316;-41
2021/04/28 02:54:32;;;;;;;17.10;11.12;;;;;;;2.39;67.51;100799.20;1706281;82;21145;-43
2021/04/28 02:57:01;;;;;;;16.87;12.00;;;;;;;2.41;67.41;100800.05;1705187;82;21575;-42
2021/04/28 02:59:31;;;;;;;20.37;11.83;;;;;;;2.39;67.22;100795.25;1707755;83;21157;-41
2021/04/28 03:02:02;;;;;;;17.70;12.37;;;;;;;2.36;67.19;100798.81;1705869;82;21288;-41
2021/04/28 03:04:33;;;;;;;15.98;10.63;;;;;;;2.35;67.29;100798.41;1715308;83;21176;-41
2021/04/28 03:07:18;;;;;;;17.10;10.80;;;;;;;2.39;67.34;100791.30;1764503;79;22968;-41
2021/04/28 03:09:51;;;;;;;15.70;11.33;;;;;;;2.34;67.40;100798.00;1740613;80;21644;-40
2021/04/28 03:12:26;;;;;;;19.98;12.23;;;;;;;2.33;67.51;100801.51;1736332;80;21291;-43
2021/04/28 03:15:00;;;;;;;17.00;11.48;;;;;;;2.35;67.58;100807.62;1716227;82;21363;-43
2021/04/28 03:17:29;;;;;;;18.35;11.38;;;;;;;2.35;67.68;100804.98;1698438;84;21158;-42
2021/04/28 03:19:58;;;;;;;19.02;11.50;;;;;;;2.36;67.74;100808.02;1711052;82;21149;-40
2021/04/28 03:22:28;;;;;;;16.60;11.38;;;;;;;2.39;67.84;100809.73;1719919;83;21177;-41
2021/04/28 03:24:56;;;;;;;19.50;13.10;;;;;;;2.41;67.88;100813.20;1701208;83;21601;-42
2021/04/28 03:27:24;;;;;;;18.90;13.20;;;;;;;2.44;67.96;100818.41;1685332;83;21221;-41
2021/04/28 03:29:59;;;;;;;24.57;14.53;;;;;;;2.46;67.95;100823.66;1714402;82;21168;-41
2021/04/28 03:32:27;;;;;;;21.82;13.40;;;;;;;2.48;67.91;100827.98;1699210;84;21633;-42
2021/04/28 03:35:05;;;;;;;26.50;15.00;;;;;;;2.57;67.81;100819.92;1758076;79;22272;-40
2021/04/28 03:37:33;;;;;;;27.50;16.65;;;;;;;2.54;67.62;100827.85;1733046;81;21137;-40
2021/04/28 03:40:01;;;;;;;38.50;19.50;;;;;;;2.53;67.50;100835.80;1737291;82;21288;-40
2021/04/28 03:42:29;;;;;;;33.23;20.57;;;;;;;2.50;67.52;100831.47;1735523;80;21110;-40
2021/04/28 03:44:57;;;;;;;35.45;20.70;;;;;;;2.51;67.60;100837.59;1655809;85;21184;-40
2021/04/28 03:47:25;;;;;;;34.27;20.82;;;;;;;2.49;67.64;100837.61;1675818;83;21163;-38
2021/04/28 03:49:54;;;;;;;29.50;19.60;;;;;;;2.47;67.71;100845.12;1711182;82;21137;-41
2021/04/28 03:52:22;;;;;;;29.70;18.75;;;;;;;2.47;67.83;100842.48;1680656;82;21165;-38
2021/04/28 03:55:08;;;;;;;25.77;15.78;;;;;;;2.55;67.77;100850.67;1759383;79;23211;-39
2021/04/28 03:57:36;;;;;;;27.13;15.63;;;;;;;2.55;67.65;100849.81;1728053;82;21157;-42
2021/04/28 04:00:05;;;;;;;24.47;15.38;;;;;;;2.59;67.33;100851.47;1732843;80;21154;-42
2021/04/28 04:02:35;;;;;;;21.62;13.83;;;;;;;2.63;67.10;100855.78;1730733;80;21141;-39
2021/04/28 04:05:21;;;;;;;21.05;14.35;;;;;;;2.66;66.99;100857.49;1734076;80;21526;-41
2021/04/28 04:08:04;;;;;;;18.25;12.70;;;;;;;2.75;66.81;100852.05;1803506;78;23097;-43
2021/04/28 04:10:36;;;;;;;21.62;14.03;;;;;;;2.71;66.70;100859.12;1781319;79;21120;-40
2021/04/28 04:13:07;;;;;;;25.15;14.33;;;;;;;2.78;66.75;100867.78;1783477;79;21125;-42
2021/04/28 04:15:37;;;;;;;23.15;13.40;;;;;;;2.83;66.68;100861.97;1755653;80;21490;-41
2021/04/28 04:18:06;;;;;;;23.45;14.75;;;;;;;2.88;66.52;100868.02;1783048;79;21692;-39
2021/04/28 04:20:38;;;;;;;22.87;14.05;;;;;;;2.93;66.41;100863.52;1782178;79;21113;-41
2021/04/28 04:23:11;;;;;;;19.55;13.70;;;;;;;2.98;66.23;100878.78;1776532;80;21126;-53
2021/04/28 04:25:56;;;;;;;22.20;14.30;;;;;;;3.04;65.99;100880.41;1781100;79;21161;-40
2021/04/28 04:28:33;;;;;;;21.42;12.65;;;;;;;3.11;65.70;100882.02;1737668;81;21149;-40
2021/04/28 04:31:03;;;;;;;24.55;13.90;;;;;;;3.14;65.04;100880.63;1731558;81;21518;-40
2021/04/28 04:33:57;;;;;;;24.98;15.90;;;;;;;3.25;64.60;100883.02;1799613;78;23540;-39
2021/04/28 04:36:43;;;;;;;24.30;14.28;;;;;;;3.27;64.29;100883.00;1771659;80;21463;-40
2021/04/28 04:39:28;;;;;;;23.80;15.15;;;;;;;3.39;63.95;100879.64;1758100;79;22956;-43
2021/04/28 04:42:14;;;;;;;20.68;13.80;;;;;;;3.44;63.84;100889.62;1734609;82;21134;-41
2021/04/28 04:44:46;;;;;;;24.92;12.78;;;;;;;3.53;63.70;100885.94;1725989;82;21165;-41
2021/04/28 04:47:14;;;;;;;22.00;14.68;;;;;;;3.62;63.51;100890.97;1715776;82;21566;-42
2021/04/28 04:49:43;;;;;;;22.13;13.40;;;;;;;3.71;63.10;100891.23;1719055;82;21118;-43
2021/04/28 04:52:12;;;;;;;20.10;14.07;;;;;;;3.80;62.80;100892.77;1714215;82;21162;-40
2021/04/28 04:54:39;;;;;;;19.60;13.18;;;;;;;3.89;62.26;100888.59;1720334;82;21144;-38
2021/04/28 04:57:07;;;;;;;19.70;11.90;;;;;;;3.97;61.86;100895.86;1715431;83;21133;-42
2021/04/28 04:59:35;;;;;;;19.62;12.40;;;;;;;4.08;61.35;100900.44;1720942;82;21157;-41
2021/04/28 05:02:03;;;;;;;23.65;12.75;;;;;;;4.17;60.94;100905.06;1717356;82;21275;-41
2021/04/28 05:04:31;;;;;;;19.95;12.35;;;;;;;4.27;60.54;100909.20;1716606;83;21156;-40
2021/04/28 05:06:59;;;;;;;19.87;12.95;;;;;;;4.36;60.35;100911.62;1718565;82;21141;-41
2021/04/28 05:09:27;;;;;;;24.65;14.90;;;;;;;4.47;60.43;100913.97;1716855;82;21118;-41
2021/04/28 05:11:55;;;;;;;20.02;11.55;;;;;;;4.58;60.16;100910.58;1717418;83;21157;-41
2021/04/28 05:14:23;;;;;;;21.65;13.45;;;;;;;4.69;59.96;100915.13;1714387;82;21149;-41
2021/04/28 05:16:51;;;;;;;21.57;12.03;;;;;;;4.78;59.51;100915.31;1715486;82;21157;-41
2021/04/28 05:19:19;;;;;;;21.07;12.73;;;;;;;4.87;58.70;100917.72;1718814;82;21150;-41
2021/04/28 05:21:47;;;;;;;18.82;13.20;;;;;;;4.97;57.74;100916.55;1717039;82;21161;-56
2021/04/28 05:24:14;;;;;;;20.02;11.22;;;;;;;5.07;56.87;100920.26;1706598;82;21163;-41
2021/04/28 05:27:03;;;;;;;15.23;9.10;;;;;;;5.23;56.27;100912.73;1803906;79;22946;-40
2021/04/28 05:29:31;;;;;;;15.58;9.18;;;;;;;5.30;55.31;100919.58;1743368;81;21189;-40
2021/04/28 05:31:59;;;;;;;14.45;8.80;;;;;;;5.39;54.29;100921.50;1714486;81;22075;-41
2021/04/28 05:34:27;;;;;;;11.97;6.62;;;;;;;5.49;53.58;100919.88;1717455;81;21185;-42
2021/04/28 05:36:55;;;;;;;10.75;7.20;;;;;;;5.58;51.59;100926.22;1737470;81;21165;-40
2021/04/28 05:39:22;;;;;;;7.00;4.53;;;;;;;5.65;50.87;100930.41;1737667;81;21148;-43
2021/04/28 05:41:50;;;;;;;8.83;5.70;;;;;;;5.71;49.53;100933.32;1741007;81;21161;-40
2021/04/28 05:44:18;;;;;;;6.92;4.85;;;;;;;5.76;49.11;100935.36;1744204;81;21190;-38
2021/04/28 05:46:47;;;;;;;8.28;4.80;;;;;;;5.85;48.99;100936.41;1713981;83;21167;-41
2021/04/28 05:49:21;;;;;;;6.62;4.67;;;;;;;5.93;49.42;100942.32;1719417;81;21674;-40
2021/04/28 05:52:44;;;;;;;7.22;4.90;;;;;;;6.02;49.56;100939.85;1718090;81;21170;-42
2021/04/28 05:55:25;;;;;;;6.83;4.70;;;;;;;6.12;49.28;100937.31;1592696;88;22009;-43
2021/04/28 05:58:00;;;;;;;8.33;4.90;;;;;;;6.32;49.59;100934.47;1799189;78;22962;-42
2021/04/28 06:00:28;;;;;;;8.30;4.92;;;;;;;6.37;49.06;100948.42;1778317;79;21174;-44
2021/04/28 06:02:56;;;;;;;8.53;4.65;;;;;;;6.45;49.05;100949.02;1775305;79;21162;-42
2021/04/28 06:05:23;;;;;;;9.40;4.95;;;;;;;6.55;48.99;100948.25;1777271;79;21141;-43
2021/04/28 06:07:51;;;;;;;7.83;5.33;;;;;;;6.63;48.68;100955.03;1775457;79;21149;-42
2021/04/28 06:10:19;;;;;;;6.33;4.25;;;;;;;6.73;48.67;100948.95;1772083;79;21667;-51
2021/04/28 06:12:47;;;;;;;8.08;4.25;;;;;;;6.81;48.68;100942.06;1775527;79;21137;-39
2021/04/28 06:15:16;;;;;;;5.28;2.95;;;;;;;6.91;48.81;100946.97;1777549;79;21192;-40
2021/04/28 06:17:44;;;;;;;4.90;3.25;;;;;;;7.00;47.89;100945.76;1776328;79;21149;-41
2021/04/28 06:20:17;;;;;;;5.45;3.95;;;;;;;7.14;46.97;100942.62;1778755;79;21521;-39
2021/04/28 06:23:05;;;;;;;10.75;6.08;;;;;;;7.14;46.97;100942.62;1779723;79;21708;-48
2021/04/28 06:25:39;;;;;;;5.62;4.03;;;;;;;7.24;46.72;100947.98;1775667;79;21158;-52
2021/04/28 06:28:07;;;;;;;5.25;3.33;;;;;;;7.35;46.58;100951.55;1773667;79;21171;-45
2021/04/28 06:30:36;;;;;;;5.60;2.98;;;;;;;7.42;44.68;100952.20;1780315;79;21589;-41
2021/04/28 06:33:04;;;;;;;6.25;4.47;;;;;;;7.45;44.19;100948.95;1776098;79;21158;-40
2021/04/28 06:35:34;;;;;;;5.67;3.22;;;;;;;7.50;42.90;100950.97;1722628;81;21617;-41
2021/04/28 06:38:02;;;;;;;7.90;3.30;;;;;;;7.53;42.86;100949.98;1718790;81;21157;-49
2021/04/28 06:40:30;;;;;;;5.85;2.90;;;;;;;7.57;42.58;100952.94;1720747;81;21165;-41
2021/04/28 06:42:58;;;;;;;7.20;4.25;;;;;;;7.64;42.85;100952.25;1714672;82;21146;-41
2021/04/28 06:45:26;;;;;;;3.90;2.60;;;;;;;7.82;43.95;100959.48;1715995;81;21191;-45
2021/04/28 06:47:54;;;;;;;4.70;2.50;;;;;;;7.82;43.95;100959.48;1723839;82;21214;-39
2021/04/28 06:50:22;;;;;;;5.22;2.50;;;;;;;8.02;42.85;100962.67;1727731;82;21153;-39
2021/04/28 06:52:50;;;;;;;4.05;2.62;;;;;;;8.02;42.85;100962.67;1723376;81;21137;-42
2021/04/28 06:55:18;;;;;;;4.15;2.55;;;;;;;8.09;41.02;100953.53;1724058;82;21185;-42
2021/04/28 06:57:53;;;;;;;3.83;2.47;;;;;;;8.16;41.48;100952.80;1707320;82;21161;-41
2021/04/28 07:00:18;;;;;;;4.42;2.50;;;;;;;8.26;41.85;100959.47;1710267;82;21235;-42
2021/04/28 07:02:46;;;;;;;4.40;2.37;;;;;;;8.36;41.37;100954.16;1720873;81;21162;-41
2021/04/28 07:05:14;;;;;;;4.55;2.67;;;;;;;8.49;41.72;100962.52;1710885;82;21126;-42
2021/04/28 07:07:42;;;;;;;5.40;2.52;;;;;;;8.60;41.99;100960.76;1707811;82;21593;-51
2021/04/28 07:10:10;;;;;;;4.30;2.15;;;;;;;8.71;41.30;100966.94;1708749;82;21590;-39
2021/04/28 07:12:38;;;;;;;4.20;2.58;;;;;;;8.77;40.93;100957.35;1709443;83;21938;-40
2021/04/28 07:15:07;;;;;;;5.33;2.35;;;;;;;8.86;40.79;100963.14;1705145;82;21545;-40
2021/04/28 07:17:35;;;;;;;4.47;2.25;;;;;;;8.95;41.20;100967.20;1716417;83;21181;-40
2021/04/28 07:20:05;;;;;;;4.62;1.82;;;;;;;9.03;40.44;100958.88;1721115;83;21189;-41
2021/04/28 07:22:34;;;;;;;4.80;2.30;;;;;;;9.12;39.97;100958.92;1721091;81;22165;-39
2021/04/28 07:25:02;;;;;;;3.25;1.72;;;;;;;9.20;39.97;100959.47;1719620;81;21122;-41
2021/04/28 07:27:30;;;;;;;2.77;1.80;;;;;;;9.29;39.65;100963.88;1688133;83;21164;-42
2021/04/28 07:29:59;;;;;;;4.08;2.30;;;;;;;9.36;38.24;100960.48;1720478;83;21130;-41
2021/04/28 07:32:27;;;;;;;3.08;1.55;;;;;;;9.40;38.96;100955.87;1717630;82;21141;-42
2021/04/28 07:34:54;;;;;;;4.00;1.95;;;;;;;9.47;38.57;100948.00;1723526;82;21866;-40
2021/04/28 07:37:22;;;;;;;3.12;1.75;;;;;;;9.56;38.64;100959.56;1719379;81;21181;-39
2021/04/28 07:39:50;;;;;;;2.70;1.55;;;;;;;9.64;37.19;100953.88;1720089;81;21161;-41
2021/04/28 07:42:17;;;;;;;5.05;2.27;;;;;;;9.69;37.61;100949.20;1721781;81;21150;-45
2021/04/28 07:44:46;;;;;;;3.33;1.85;;;;;;;9.77;37.78;100956.82;1718770;81;21183;-40
2021/04/28 07:47:14;;;;;;;3.70;2.45;;;;;;;9.82;37.01;100953.00;1716005;81;21865;-41
2021/04/28 07:49:42;;;;;;;3.35;1.85;;;;;;;9.87;36.88;100956.30;1721257;82;21167;-40
2021/04/28 07:52:11;;;;;;;5.03;1.90;;;;;;;9.91;37.01;100951.23;1715066;83;21150;-40
2021/04/28 07:54:39;;;;;;;3.67;2.10;;;;;;;9.94;35.95;100954.22;1719406;81;21605;-40
2021/04/28 07:57:07;;;;;;;3.37;1.55;;;;;;;9.94;36.33;100961.73;1701811;82;21158;-40
2021/04/28 07:59:35;;;;;;;3.22;1.85;;;;;;;9.95;36.79;100958.16;1711304;82;21193;-44
2021/04/28 08:02:03;;;;;;;3.62;1.87;;;;;;;9.99;36.30;100953.52;1711816;82;21157;-42
2021/04/28 08:04:32;;;;;;;2.70;1.60;;;;;;;9.99;34.83;100944.67;1687471;83;21758;-44
2021/04/28 08:07:00;;;;;;;2.75;1.65;;;;;;;9.96;35.13;100950.54;1682354;83;21178;-43
2021/04/28 08:09:27;;;;;;;2.77;1.77;;;;;;;9.97;34.85;100944.73;1748371;80;21187;-44
2021/04/28 08:11:56;;;;;;;2.92;1.50;;;;;;;10.00;35.82;100951.24;1749036;80;21924;-44
2021/04/28 08:14:25;;;;;;;2.98;1.82;;;;;;;10.04;35.83;100948.83;1744830;80;21138;-45
2021/04/28 08:16:53;;;;;;;3.87;1.50;;;;;;;10.12;36.24;100953.31;1745467;80;21153;-44
2021/04/28 08:19:21;;;;;;;2.47;1.55;;;;;;;10.18;35.00;100943.70;1745593;80;21161;-45
2021/04/28 08:21:49;;;;;;;3.10;1.82;;;;;;;10.21;33.75;100945.82;1741712;80;21134;-44
2021/04/28 08:24:16;;;;;;;9.68;5.70;;;;;;;10.16;33.94;100946.91;1745144;80;21162;-45
2021/04/28 08:26:47;;;;;;;2.90;1.92;;;;;;;10.14;35.18;100943.92;1745372;80;21687;-45
2021/04/28 08:29:14;;;;;;;;;;;;;;;10.21;34.83;100948.48;1750841;80;21181;-44
2021/04/28 08:31:42;;;;;;;2.22;1.35;;;;;;;10.28;34.67;100941.48;1749489;80;20634;-44
2021/04/28 08:34:10;;;;;;;2.77;1.60;;;;;;;10.38;35.16;100948.06;1746303;80;21153;-44
2021/04/28 08:36:37;;;;;;;4.42;3.37;;;;;;;10.48;35.26;100939.59;1748565;80;21613;-45
2021/04/28 08:39:07;;;;;;;4.47;3.33;;;;;;;10.58;34.81;100936.39;1750202;80;21109;-46
2021/04/28 08:41:36;;;;;;;2.98;1.62;;;;;;;10.68;35.37;100935.90;1748870;80;21476;-46
2021/04/28 08:44:08;;;;;;;2.92;1.40;;;;;;;10.78;34.93;100938.00;1747635;80;21158;-44
2021/04/28 08:46:36;;;;;;;1.70;1.40;;;;;;;10.85;34.31;100931.89;1747172;81;21161;-46
2021/04/28 08:49:05;;;;;;;2.20;1.67;;;;;;;10.89;34.09;100930.80;1720051;80;21521;-44
2021/04/28 08:51:33;;;;;;;1.70;1.27;;;;;;;10.95;35.02;100926.93;1744570;80;21177;-45
2021/04/28 08:54:01;;;;;;;2.83;1.52;;;;;;;10.99;31.42;100929.84;1747062;80;21430;-48
2021/04/28 08:56:29;;;;;;;2.40;1.30;;;;;;;10.92;30.47;100923.95;1747020;80;21588;-46
2021/04/28 08:58:58;;;;;;;2.72;1.27;;;;;;;10.78;30.97;100924.66;1770142;79;21162;-47
2021/04/28 09:01:28;;;;;;;1.92;1.12;;;;;;;10.71;33.86;100927.73;1768384;79;21445;-46
2021/04/28 09:04:00;;;;;;;2.08;1.30;;;;;;;10.81;33.87;100918.34;1775571;79;21130;-47
2021/04/28 09:06:35;;;;;;;1.95;1.17;;;;;;;10.93;33.14;100926.14;1749773;80;21133;-45
2021/04/28 09:09:12;;;;;;;3.35;1.90;;;;;;;10.96;32.69;100917.52;1773772;79;21176;-44
2021/04/28 09:11:57;;;;;;;3.02;1.55;;;;;;;10.98;34.15;100924.95;1766571;80;21554;-43
2021/04/28 09:14:32;;;;;;;2.33;1.25;;;;;;;11.10;34.53;100923.92;1765975;80;21821;-47
2021/04/28 09:17:02;;;;;;;3.52;1.30;;;;;;;11.22;32.66;100919.26;1775396;79;21129;-46
2021/04/28 09:19:57;;;;;;;3.00;1.55;;;;;;;11.25;33.43;100913.27;1775189;79;21656;-47
2021/04/28 09:22:49;;;;;;;2.10;1.17;;;;;;;11.35;32.49;100918.97;1772622;79;21557;-48
2021/04/28 09:25:41;;;;;;;2.95;1.55;;;;;;;11.42;32.38;100914.17;1770882;79;21844;-50
2021/04/28 09:28:34;;;;;;;1.92;1.40;;;;;;;11.51;34.26;100903.44;1796802;78;23430;-47
2021/04/28 09:31:12;;;;;;;6.28;2.47;;;;;;;11.58;33.71;100919.51;1773953;79;21168;-43
2021/04/28 09:33:53;;;;;;;2.75;1.95;;;;;;;11.66;33.78;100918.59;1772603;79;21692;-45
2021/04/28 09:36:34;;;;;;;3.75;1.85;;;;;;;11.76;33.93;100916.27;1771525;79;21145;-48
2021/04/28 09:39:06;;;;;;;2.37;1.55;;;;;;;11.84;33.12;100918.03;1717407;81;21895;-45
2021/04/28 09:41:50;;;;;;;2.42;1.90;;;;;;;11.88;33.74;100915.13;1707671;82;21197;-48
2021/04/28 09:44:29;;;;;;;2.17;1.45;;;;;;;11.95;34.07;100911.66;1736716;81;21149;-46
2021/04/28 09:47:08;;;;;;;3.02;2.02;;;;;;;12.03;33.01;100907.20;1714104;81;21157;-46
2021/04/28 09:50:00;;;;;;;2.42;1.70;;;;;;;12.01;32.28;100909.95;1731486;81;21130;-44
2021/04/28 09:52:41;;;;;;;2.52;1.80;;;;;;;12.01;32.18;100899.25;1720250;82;21160;-45
2021/04/28 09:55:14;;;;;;;2.52;1.52;;;;;;;12.07;32.82;100902.04;1717988;82;21125;-46
2021/04/28 09:57:47;;;;;;;1.35;1.15;;;;;;;12.15;32.71;100902.96;1720785;82;21377;-44
2021/04/28 10:00:27;;;;;;;1.92;1.15;;;;;;;12.22;31.95;100901.17;1722336;81;21137;-41
2021/04/28 10:03:03;;;;;;;3.77;1.70;;;;;;;12.26;30.78;100898.69;1719967;82;21730;-44
2021/04/28 10:05:34;;;;;;;8.53;5.42;;;;;;;12.26;31.42;100898.69;1719675;82;21176;-45
2021/04/28 10:08:22;;;;;;;13.40;9.45;;;;;;;12.29;31.06;100893.63;1721595;82;21164;-47
2021/04/28 10:10:52;;;;;;;4.37;2.85;;;;;;;12.32;31.22;100892.99;1721662;82;21553;-47
2021/04/28 10:13:20;;;;;;;1.70;1.22;;;;;;;12.38;31.59;100890.42;1718597;82;21149;-51
2021/04/28 10:15:48;;;;;;;2.05;1.42;;;;;;;12.45;31.22;100894.46;1718531;82;21168;-46
2021/04/28 10:18:18;;;;;;;2.75;1.37;;;;;;;12.52;31.26;100888.24;1721569;82;21143;-45
2021/04/28 10:20:48;;;;;;;3.75;1.87;;;;;;;12.59;30.82;100887.41;1720467;81;21155;-47
2021/04/28 10:23:17;;;;;;;2.30;1.10;;;;;;;12.64;31.16;100875.95;1741765;80;21173;-45
2021/04/28 10:25:49;;;;;;;3.45;2.40;;;;;;;12.71;30.75;100879.98;1712826;83;21150;-44
2021/04/28 10:28:18;;;;;;;2.47;1.77;;;;;;;12.73;30.90;100878.93;1689023;83;21302;-45
2021/04/28 10:30:48;;;;;;;2.25;1.67;;;;;;;12.75;30.65;100877.03;1717877;80;21206;-46
2021/04/28 10:33:24;;;;;;;3.22;2.33;;;;;;;12.76;30.10;100880.56;1744634;80;21161;-45
2021/04/28 10:35:52;;;;;;;3.35;2.05;;;;;;;12.80;30.82;100882.11;1746222;80;21149;-48
2021/04/28 10:38:25;;;;;;;2.55;1.90;;;;;;;12.87;31.84;100882.56;1748882;80;21156;-43
2021/04/28 10:40:53;;;;;;;3.33;1.52;;;;;;;12.94;31.70;100877.22;1745120;80;21142;-43
2021/04/28 10:43:35;;;;;;;3.45;2.37;;;;;;;13.01;31.45;100869.20;1740441;80;21115;-46
2021/04/28 10:46:20;;;;;;;2.17;1.62;;;;;;;13.08;31.40;100867.86;1739772;80;21117;-48
2021/04/28 10:48:51;;;;;;;2.12;1.67;;;;;;;13.15;30.55;100877.23;1742709;80;21633;-46
2021/04/28 10:51:36;;;;;;;2.12;1.50;;;;;;;13.20;30.98;100874.23;1748217;80;21150;-44
2021/04/28 10:54:25;;;;;;;3.25;1.95;;;;;;;13.24;31.23;100870.42;1741280;80;21110;-42
2021/04/28 10:57:06;;;;;;;2.83;1.33;;;;;;;13.29;30.61;100871.50;1744164;80;21520;-44
2021/04/28 10:59:41;;;;;;;3.67;2.17;;;;;;;13.31;30.49;100870.94;1744579;80;21783;-44
2021/04/28 11:02:09;;;;;;;4.05;1.75;;;;;;;13.32;29.87;100860.11;1739066;80;21166;-47
2021/04/28 11:04:37;;;;;;;3.50;1.67;;;;;;;13.32;30.03;100858.77;1746646;80;21184;-42
2021/04/28 11:07:07;;;;;;;2.33;1.70;;;;;;;13.30;28.08;100859.82;1735332;80;21990;-45
2021/04/28 11:09:36;;;;;;;2.90;1.90;;;;;;;13.24;29.54;100863.72;1750618;80;21145;-44
2021/04/28 11:12:04;;;;;;;2.25;1.67;;;;;;;13.24;29.31;100862.88;1755368;80;21591;-43
2021/04/28 11:14:32;;;;;;;2.95;1.50;;;;;;;13.26;29.39;100862.30;1746730;80;21157;-43
2021/04/28 11:17:19;;;;;;;2.92;1.60;;;;;;;13.30;29.07;100859.82;1710617;82;21577;-43
2021/04/28 11:19:51;;;;;;;3.10;2.10;;;;;;;13.32;28.98;100854.75;1693756;83;21576;-45
2021/04/28 11:22:24;;;;;;;2.08;1.32;;;;;;;13.34;29.71;100840.78;1717911;82;21149;-45
2021/04/28 11:25:16;;;;;;;5.75;5.08;;;;;;;13.40;29.82;100848.89;1746028;80;21173;-45
2021/04/28 11:27:54;;;;;;;4.00;2.98;;;;;;;13.45;29.41;100842.77;1752025;80;21661;-44
2021/04/28 11:30:44;;;;;;;3.15;1.75;;;;;;;13.50;29.65;100844.66;1767785;80;21134;-43
2021/04/28 11:33:32;;;;;;;4.15;1.82;;;;;;;13.54;29.75;100838.64;1769525;80;21126;-43
2021/04/28 11:36:08;;;;;;;2.50;1.75;;;;;;;13.56;29.76;100837.58;1765670;80;21151;-41
2021/04/28 11:38:40;;;;;;;3.42;2.17;;;;;;;13.59;29.31;100841.88;1768001;80;21106;-45
2021/04/28 11:41:11;;;;;;;3.72;2.17;;;;;;;13.64;29.83;100843.78;1773059;80;21413;-44
2021/04/28 11:43:57;;;;;;;2.58;1.95;;;;;;;13.70;29.31;100846.53;1766885;80;21150;-49
2021/04/28 11:46:29;;;;;;;3.10;2.17;;;;;;;13.71;28.85;100841.08;1771058;80;21181;-47
2021/04/28 11:48:59;;;;;;;2.87;2.00;;;;;;;13.72;27.76;100841.45;1772639;80;21527;-46
2021/04/28 11:51:33;;;;;;;3.77;2.17;;;;;;;13.65;27.51;100838.78;1762848;80;21148;-46
2021/04/28 11:54:05;;;;;;;3.50;1.90;;;;;;;13.57;27.64;100834.41;1763143;80;21537;-46
2021/04/28 11:56:38;;;;;;;3.15;2.05;;;;;;;13.49;27.77;100837.59;1761415;80;21554;-47
2021/04/28 11:59:07;;;;;;;5.95;2.50;;;;;;;13.49;29.17;100830.90;1763333;80;21113;-44
2021/04/28 12:01:37;;;;;;;4.47;3.05;;;;;;;13.59;29.70;100839.20;1764651;81;21153;-45
2021/04/28 12:04:07;;;;;;;5.78;2.75;;;;;;;13.64;29.90;100824.53;1767519;80;21574;-46
2021/04/28 12:06:48;;;;;;;3.15;2.50;;;;;;;13.70;29.81;100825.09;1758277;80;21635;-51
2021/04/28 12:09:47;;;;;;;4.78;3.50;;;;;;;13.74;28.92;100822.59;1747462;80;21126;-50
2021/04/28 12:12:28;;;;;;;4.62;2.40;;;;;;;13.78;30.06;100821.41;1759613;80;21778;-43